Time;durP1;ratioP1;P1;durP2;ratioP2;P2;SDS_P1;SDS_P2;PMS_P1;PMS_P2;Temp;Humidity;BMP_temperature;BMP_pressure;BME280_temperature;BME280_humidity;BME280_pressure;Samples;Min_cycle;Max_cycle;Signal;HPM_P1;HPM_P2
2022/10/18 00:00:28;;;;;;;15.05;11.73;;;;;;;14.76;100.00;102502.75;5269077;28;20021;-84
2022/10/18 00:02:59;;;;;;;13.32;11.90;;;;;;;14.77;100.00;102512.53;5276887;28;20140;-84
2022/10/18 00:05:31;;;;;;;15.98;12.55;;;;;;;14.69;100.00;102491.69;5264138;28;20026;-84
2022/10/18 00:08:02;;;;;;;14.50;12.93;;;;;;;14.77;100.00;102503.63;5266541;28;20052;-84
2022/10/18 00:10:33;;;;;;;10.10;9.10;;;;;;;14.81;100.00;102497.00;5275493;28;20032;-84
2022/10/18 00:13:05;;;;;;;11.73;10.52;;;;;;;14.82;100.00;102491.50;5261637;28;20119;-84
2022/10/18 00:15:36;;;;;;;11.23;9.98;;;;;;;14.83;100.00;102501.28;5276448;28;20103;-84
2022/10/18 00:18:07;;;;;;;16.73;11.18;;;;;;;14.85;100.00;102510.06;5260544;28;20041;-85
2022/10/18 00:20:39;;;;;;;15.93;12.43;;;;;;;14.81;100.00;102502.38;5259820;28;20133;-84
2022/10/18 00:23:10;;;;;;;9.88;8.70;;;;;;;14.86;100.00;102500.16;5261050;28;38665;-84
2022/10/18 00:25:41;;;;;;;13.32;10.07;;;;;;;14.79;100.00;102497.13;5259902;28;20510;-85
2022/10/18 00:28:13;;;;;;;10.52;9.45;;;;;;;14.84;100.00;102499.44;5259805;28;20056;-85
2022/10/18 00:30:44;;;;;;;12.32;9.48;;;;;;;14.75;100.00;102496.53;5265023;28;20035;-84
2022/10/18 00:33:15;;;;;;;10.55;8.80;;;;;;;14.92;100.00;102503.16;5260880;28;20030;-85
2022/10/18 00:35:47;;;;;;;14.95;11.57;;;;;;;14.75;100.00;102493.84;5260524;28;20032;-85
2022/10/18 00:38:18;;;;;;;11.80;10.60;;;;;;;14.70;100.00;102484.47;5257349;28;20083;-84
2022/10/18 00:40:49;;;;;;;11.38;10.13;;;;;;;14.83;100.00;102492.34;5267722;28;20072;-85
2022/10/18 00:43:20;;;;;;;13.40;11.48;;;;;;;14.78;100.00;102492.75;5269916;28;20036;-85
2022/10/18 00:45:52;;;;;;;14.05;12.05;;;;;;;14.77;100.00;102500.94;5261661;28;20473;-84
2022/10/18 00:48:23;;;;;;;17.58;13.35;;;;;;;14.68;100.00;102484.59;5260104;28;20378;-84
2022/10/18 00:50:55;;;;;;;14.25;12.75;;;;;;;14.63;100.00;102491.34;5259437;28;20029;-85
2022/10/18 00:53:26;;;;;;;19.38;12.85;;;;;;;14.63;100.00;102504.78;5263550;28;20485;-85
2022/10/18 00:55:58;;;;;;;16.80;10.32;;;;;;;14.70;100.00;102504.13;5262246;28;20029;-84
2022/10/18 00:58:29;;;;;;;13.93;10.60;;;;;;;14.69;100.00;102506.94;5260110;28;20074;-84
2022/10/18 01:01:01;;;;;;;14.57;12.05;;;;;;;14.67;100.00;102516.97;5263530;28;20424;-84
2022/10/18 01:03:33;;;;;;;15.75;13.50;;;;;;;14.60;100.00;102513.09;5261813;28;20129;-84
2022/10/18 01:06:07;;;;;;;14.52;10.88;;;;;;;14.69;100.00;102515.88;5261267;28;20413;-85
2022/10/18 01:08:41;;;;;;;12.68;11.45;;;;;;;14.70;100.00;102514.88;5261855;28;20034;-84
2022/10/18 01:11:46;;;;;;;12.10;9.88;;;;;;;14.84;100.00;102523.59;5260726;28;20064;-84
2022/10/18 01:14:26;;;;;;;15.93;10.73;;;;;;;14.83;100.00;102524.56;5294448;28;20433;-84
2022/10/18 01:17:15;;;;;;;11.93;10.65;;;;;;;14.78;100.00;102516.06;5261199;28;20030;-84
2022/10/18 01:19:55;;;;;;;13.23;11.82;;;;;;;14.80;100.00;102519.50;5258518;28;20470;-84
2022/10/18 01:22:35;;;;;;;16.92;12.25;;;;;;;14.71;100.00;102510.38;5261266;28;21689;-84
2022/10/18 01:25:22;;;;;;;15.07;12.65;;;;;;;14.69;100.00;102515.88;5256429;28;20390;-84
2022/10/18 01:28:29;;;;;;;14.60;12.65;;;;;;;14.64;100.00;102511.84;5260886;28;20033;-85
2022/10/18 01:31:04;;;;;;;14.85;12.57;;;;;;;14.64;100.00;102503.78;5260582;28;20038;-85
2022/10/18 01:33:49;;;;;;;11.68;10.13;;;;;;;14.73;100.00;102519.16;5291358;28;20029;-84
2022/10/18 01:36:47;;;;;;;13.45;11.15;;;;;;;14.69;100.00;102523.94;5259934;28;20106;-85
2022/10/18 01:39:23;;;;;;;12.05;10.88;;;;;;;14.72;100.00;102522.81;5264949;28;20864;-85
2022/10/18 01:41:58;;;;;;;14.20;11.55;;;;;;;14.59;100.00;102530.19;5260645;28;20449;-84
2022/10/18 01:44:31;;;;;;;18.02;12.90;;;;;;;14.56;100.00;102515.16;5260422;28;20042;-84
2022/10/18 01:47:05;;;;;;;10.55;9.13;;;;;;;14.67;100.00;102525.00;5264468;28;20040;-84
2022/10/18 01:49:37;;;;;;;12.52;7.95;;;;;;;14.65;100.00;102508.19;5260405;28;20025;-84
2022/10/18 01:52:13;;;;;;;11.30;9.75;;;;;;;14.69;100.00;102517.69;5262443;28;20028;-84
2022/10/18 01:54:49;;;;;;;11.45;10.27;;;;;;;14.60;100.00;102518.47;5258923;28;20032;-84
2022/10/18 01:57:29;;;;;;;14.32;12.70;;;;;;;14.57;100.00;102519.53;5259017;28;20052;-84
2022/10/18 02:00:11;;;;;;;14.73;9.95;;;;;;;14.59;100.00;102533.72;5264081;28;20120;-85
2022/10/18 02:03:03;;;;;;;14.48;11.57;;;;;;;14.54;100.00;102522.47;5259847;28;20057;-84
2022/10/18 02:05:46;;;;;;;17.88;11.50;;;;;;;14.53;100.00;102520.75;5290556;28;20083;-84
2022/10/18 02:08:51;;;;;;;10.68;9.65;;;;;;;14.56;100.00;102518.66;5261138;28;20382;-84
2022/10/18 02:11:23;;;;;;;11.60;10.50;;;;;;;14.51;100.00;102520.88;5272122;28;20387;-84
2022/10/18 02:14:05;;;;;;;9.85;8.85;;;;;;;14.55;100.00;102525.03;5261127;28;20470;-85
2022/10/18 02:16:44;;;;;;;12.68;10.82;;;;;;;14.39;100.00;102519.22;5262120;28;20022;-84
2022/10/18 02:19:22;;;;;;;10.25;9.23;;;;;;;14.54;100.00;102522.47;5253446;28;20018;-84
2022/10/18 02:21:55;;;;;;;11.02;9.27;;;;;;;14.51;100.00;102526.25;5276681;28;20370;-84
2022/10/18 02:24:34;;;;;;;11.30;10.02;;;;;;;14.41;100.00;102511.91;5261522;28;20413;-84
2022/10/18 02:27:06;;;;;;;12.82;11.52;;;;;;;14.44;100.00;102521.53;5256878;28;20474;-84
2022/10/18 02:29:42;;;;;;;11.43;10.35;;;;;;;14.28;100.00;102524.63;5263825;28;20033;-84
2022/10/18 02:32:27;;;;;;;12.77;11.25;;;;;;;14.40;100.00;102536.19;5259198;28;20108;-84
2022/10/18 02:35:09;;;;;;;15.38;11.27;;;;;;;14.36;100.00;102523.03;5258764;28;20029;-84
2022/10/18 02:37:42;;;;;;;12.40;11.02;;;;;;;14.35;100.00;102524.00;5255261;28;20029;-84
2022/10/18 02:40:15;;;;;;;13.35;11.10;;;;;;;14.43;100.00;102533.25;5261772;28;20027;-84
2022/10/18 02:42:48;;;;;;;13.82;12.40;;;;;;;14.43;100.00;102541.28;5266155;28;20379;-84
2022/10/18 02:45:20;;;;;;;13.10;11.73;;;;;;;14.45;100.00;102539.34;5258708;28;20397;-84
2022/10/18 02:47:52;;;;;;;16.55;13.25;;;;;;;14.33;100.00;102536.69;5260660;28;20036;-84
2022/10/18 02:50:23;;;;;;;14.82;13.20;;;;;;;14.39;100.00;102543.38;5262139;28;20024;-84
2022/10/18 02:52:55;;;;;;;17.27;13.90;;;;;;;14.39;100.00;102540.69;5260693;28;20259;-84
2022/10/18 02:55:26;;;;;;;15.40;13.77;;;;;;;14.40;100.00;102534.34;5260338;28;20100;-84
2022/10/18 02:57:57;;;;;;;16.00;14.05;;;;;;;14.28;100.00;102535.38;5260241;28;20034;-84
2022/10/18 03:00:28;;;;;;;18.00;15.68;;;;;;;14.21;100.00;102535.00;5263884;28;20021;-85
2022/10/18 03:03:00;;;;;;;16.60;14.57;;;;;;;14.23;100.00;102526.84;5258798;28;20871;-84
2022/10/18 03:05:31;;;;;;;11.77;10.70;;;;;;;14.23;100.00;102533.03;5261478;28;20036;-85
2022/10/18 03:08:02;;;;;;;21.35;14.90;;;;;;;14.24;100.00;102532.09;5259946;28;20036;-84
2022/10/18 03:10:34;;;;;;;11.93;10.07;;;;;;;14.29;100.00;102531.72;5259838;28;20028;-85
2022/10/18 03:13:05;;;;;;;16.95;12.95;;;;;;;14.16;100.00;102531.84;5258726;28;20028;-84
2022/10/18 03:15:36;;;;;;;13.88;12.48;;;;;;;14.27;100.00;102537.22;5258054;28;20445;-84
2022/10/18 03:18:08;;;;;;;15.90;12.77;;;;;;;14.18;100.00;102524.50;5261340;28;20029;-84
2022/10/18 03:20:39;;;;;;;13.05;11.40;;;;;;;14.30;100.00;102526.19;5259691;28;20028;-84
2022/10/18 03:23:10;;;;;;;17.95;14.02;;;;;;;14.13;100.00;102532.09;5255632;28;20076;-85
2022/10/18 03:25:42;;;;;;;16.25;12.63;;;;;;;14.13;100.00;102532.97;5273275;28;20478;-85
2022/10/18 03:28:13;;;;;;;20.25;14.15;;;;;;;14.07;100.00;102544.19;5260786;28;20026;-85
2022/10/18 03:30:44;;;;;;;19.45;12.82;;;;;;;14.07;100.00;102544.19;5259806;28;20021;-84
2022/10/18 03:33:16;;;;;;;16.73;13.90;;;;;;;14.07;100.00;102549.53;5257872;28;20092;-84
2022/10/18 03:35:47;;;;;;;16.48;13.07;;;;;;;14.02;100.00;102538.31;5262402;28;20025;-85
2022/10/18 03:38:18;;;;;;;15.55;13.65;;;;;;;14.04;100.00;102543.56;5256330;28;20508;-84
2022/10/18 03:40:49;;;;;;;14.13;12.65;;;;;;;14.04;100.00;102541.72;5275403;28;20512;-84
2022/10/18 03:43:22;;;;;;;14.90;12.80;;;;;;;14.07;100.00;102548.69;5255170;28;20034;-84
2022/10/18 03:45:54;;;;;;;19.08;14.88;;;;;;;13.93;100.00;102541.75;5261551;28;21253;-84
2022/10/18 03:48:25;;;;;;;15.68;13.27;;;;;;;14.05;100.00;102530.03;5259767;28;20025;-84
2022/10/18 03:50:56;;;;;;;15.80;13.77;;;;;;;14.12;100.00;102531.25;5263540;28;20053;-84
2022/10/18 03:53:28;;;;;;;14.60;13.10;;;;;;;13.95;100.00;102529.06;5259363;28;20032;-85
2022/10/18 03:55:59;;;;;;;16.33;14.68;;;;;;;13.82;100.00;102520.31;5269930;28;20108;-84
2022/10/18 03:58:30;;;;;;;12.85;11.63;;;;;;;13.94;100.00;102519.34;5262630;28;20033;-84
2022/10/18 04:01:02;;;;;;;17.70;14.70;;;;;;;14.00;100.00;102524.19;5267034;28;20112;-84
2022/10/18 04:03:33;;;;;;;12.57;11.27;;;;;;;13.91;100.00;102522.25;5259490;28;20050;-84
2022/10/18 04:06:06;;;;;;;11.48;10.38;;;;;;;13.96;100.00;102518.22;5261478;28;20375;-84
2022/10/18 04:08:37;;;;;;;13.57;12.07;;;;;;;13.98;100.00;102521.63;5259620;28;20453;-85
2022/10/18 04:11:09;;;;;;;14.43;12.95;;;;;;;14.06;100.00;102526.38;5259074;28;20038;-84
2022/10/18 04:13:41;;;;;;;15.85;14.32;;;;;;;13.95;100.00;102512.97;5259862;28;20017;-84
2022/10/18 04:16:12;;;;;;;19.02;14.57;;;;;;;14.04;100.00;102528.31;5264478;28;20083;-84
2022/10/18 04:18:43;;;;;;;16.00;14.30;;;;;;;14.09;100.00;102523.44;5258847;28;35996;-84
2022/10/18 04:21:15;;;;;;;15.82;13.88;;;;;;;14.09;100.00;102522.59;5259510;28;20131;-84
2022/10/18 04:23:47;;;;;;;16.42;14.07;;;;;;;14.14;100.00;102528.44;5264520;28;20121;-84
2022/10/18 04:26:19;;;;;;;16.85;15.05;;;;;;;14.05;100.00;102531.88;5264091;28;20060;-84
2022/10/18 04:28:50;;;;;;;18.73;16.73;;;;;;;13.98;100.00;102534.19;5260875;28;20030;-84
2022/10/18 04:31:21;;;;;;;14.15;12.73;;;;;;;13.97;100.00;102536.03;5256209;28;20028;-84
2022/10/18 04:33:53;;;;;;;12.57;11.38;;;;;;;13.93;100.00;102537.22;5269047;28;20034;-84
2022/10/18 04:36:24;;;;;;;14.02;12.60;;;;;;;14.07;100.00;102537.97;5259940;28;20064;-84
2022/10/18 04:38:55;;;;;;;14.65;13.07;;;;;;;13.97;100.00;102538.72;5259672;28;20025;-84
2022/10/18 04:41:27;;;;;;;13.20;11.80;;;;;;;13.73;100.00;102541.53;5259702;28;20021;-84
2022/10/18 04:43:58;;;;;;;15.30;13.40;;;;;;;13.74;100.00;102550.41;5262411;28;20032;-84
2022/10/18 04:46:30;;;;;;;17.08;14.95;;;;;;;13.61;100.00;102546.03;5258910;28;41122;-84
2022/10/18 04:49:01;;;;;;;16.15;14.48;;;;;;;13.52;100.00;102532.50;5257775;28;20028;-84
2022/10/18 04:51:32;;;;;;;16.10;14.38;;;;;;;13.55;100.00;102535.78;5260268;28;20030;-84
2022/10/18 04:54:04;;;;;;;23.25;15.20;;;;;;;13.23;100.00;102552.50;5285456;28;20037;-84
2022/10/18 04:56:36;;;;;;;22.60;14.65;;;;;;;13.14;100.00;102557.72;5258919;28;20022;-83
2022/10/18 04:59:07;;;;;;;19.27;16.33;;;;;;;13.21;100.00;102550.94;5264397;28;20034;-83
2022/10/18 05:01:39;;;;;;;18.55;15.13;;;;;;;13.47;100.00;102546.25;5292162;28;20036;-83
2022/10/18 05:04:10;;;;;;;24.13;19.35;;;;;;;13.51;100.00;102554.91;5268645;28;20116;-83
2022/10/18 05:06:41;;;;;;;24.55;19.75;;;;;;;13.67;100.00;102538.47;5260466;28;20030;-84
2022/10/18 05:09:13;;;;;;;29.23;22.30;;;;;;;13.73;100.00;102546.88;5256577;28;20037;-84
2022/10/18 05:11:44;;;;;;;27.25;22.20;;;;;;;13.78;100.00;102544.69;5265578;28;20033;-84
2022/10/18 05:14:16;;;;;;;25.20;18.52;;;;;;;13.91;100.00;102549.94;5270061;28;20033;-83
2022/10/18 05:16:47;;;;;;;22.20;18.23;;;;;;;13.87;100.00;102558.34;5258368;28;20037;-83
2022/10/18 05:19:18;;;;;;;22.30;19.23;;;;;;;13.88;100.00;102560.91;5256086;28;20021;-83
2022/10/18 05:21:50;;;;;;;18.58;16.58;;;;;;;13.91;100.00;102549.94;5264877;28;20488;-84
2022/10/18 05:24:21;;;;;;;27.70;19.85;;;;;;;13.96;100.00;102554.94;5271997;28;20033;-84
2022/10/18 05:26:52;;;;;;;27.90;19.15;;;;;;;13.90;100.00;102571.50;5274473;28;20072;-83
2022/10/18 05:29:24;;;;;;;30.50;18.70;;;;;;;14.00;100.00;102570.63;5263088;28;20037;-83
2022/10/18 05:31:55;;;;;;;35.33;18.52;;;;;;;14.03;100.00;102563.34;5257047;28;20120;-83
2022/10/18 05:34:30;;;;;;;39.83;19.02;;;;;;;14.02;100.00;102575.03;5264293;28;20014;-84
2022/10/18 05:37:02;;;;;;;30.65;16.02;;;;;;;13.94;100.00;102560.41;5267404;28;20052;-83
2022/10/18 05:39:33;;;;;;;128.88;24.35;;;;;;;13.69;100.00;102569.56;5268357;28;20057;-84
2022/10/18 05:42:05;;;;;;;181.38;24.77;;;;;;;13.53;100.00;102567.22;5260583;28;20025;-83
2022/10/18 05:44:36;;;;;;;143.20;22.88;;;;;;;13.43;100.00;102559.03;5265761;28;20033;-84
2022/10/18 05:47:07;;;;;;;88.60;19.30;;;;;;;13.21;100.00;102553.59;5266592;28;20018;-84
2022/10/18 05:49:41;;;;;;;116.80;20.75;;;;;;;13.31;100.00;102567.16;5263868;28;20029;-84
2022/10/18 05:52:13;;;;;;;86.45;18.95;;;;;;;13.27;100.00;102565.66;5262882;28;20025;-84
2022/10/18 05:54:44;;;;;;;131.30;21.15;;;;;;;13.22;100.00;102569.56;5258965;28;20045;-84
2022/10/18 05:57:15;;;;;;;64.57;18.92;;;;;;;13.21;100.00;102573.19;5262671;28;20024;-83
2022/10/18 05:59:47;;;;;;;48.88;18.88;;;;;;;13.00;100.00;102572.16;5260753;28;20033;-84
2022/10/18 06:02:18;;;;;;;59.90;17.65;;;;;;;13.08;100.00;102582.28;5258926;28;20050;-85
2022/10/18 06:04:49;;;;;;;69.63;18.67;;;;;;;13.03;100.00;102579.97;5261015;28;20060;-85
2022/10/18 06:07:21;;;;;;;134.77;24.10;;;;;;;12.89;100.00;102581.03;5275867;28;20416;-84
2022/10/18 06:09:52;;;;;;;55.22;18.40;;;;;;;12.76;100.00;102589.13;5262671;28;20044;-84
2022/10/18 06:12:23;;;;;;;95.55;19.52;;;;;;;12.65;100.00;102573.00;5264454;28;20701;-84
2022/10/18 06:14:54;;;;;;;133.75;21.42;;;;;;;12.98;100.00;102588.34;5264951;28;20041;-84
2022/10/18 06:17:26;;;;;;;88.65;21.90;;;;;;;12.92;100.00;102577.25;5264496;28;20446;-83
2022/10/18 06:19:57;;;;;;;98.18;19.90;;;;;;;13.05;100.00;102589.59;5265166;28;20021;-84
2022/10/18 06:22:28;;;;;;;93.10;23.88;;;;;;;12.81;100.00;102588.75;5263409;28;20088;-84
2022/10/18 06:25:00;;;;;;;155.88;27.52;;;;;;;12.82;100.00;102596.69;5264439;28;20076;-84
2022/10/18 06:27:33;;;;;;;76.93;23.98;;;;;;;12.68;100.00;102600.38;5265635;28;20029;-84
2022/10/18 06:30:05;;;;;;;124.53;21.00;;;;;;;12.86;100.00;102589.28;5293456;28;20029;-84
2022/10/18 06:32:36;;;;;;;121.10;22.90;;;;;;;13.00;100.00;102601.63;5244307;28;20431;-84
2022/10/18 06:35:08;;;;;;;163.23;30.10;;;;;;;12.94;100.00;102605.63;5244555;28;20427;-84
2022/10/18 06:37:39;;;;;;;53.10;23.48;;;;;;;12.83;100.00;102603.75;5244099;28;20026;-84
2022/10/18 06:40:11;;;;;;;56.78;22.95;;;;;;;12.97;100.00;102616.13;5261178;28;20025;-84
2022/10/18 06:42:42;;;;;;;40.70;22.50;;;;;;;12.92;100.00;102612.94;5264882;28;20435;-84
2022/10/18 06:45:14;;;;;;;139.02;30.13;;;;;;;12.99;100.00;102614.19;5265509;28;20033;-85
2022/10/18 06:47:46;;;;;;;115.25;27.27;;;;;;;13.00;100.00;102609.66;5262350;28;20029;-84
2022/10/18 06:50:17;;;;;;;56.35;23.05;;;;;;;13.04;100.00;102597.75;5264164;28;20415;-85
2022/10/18 06:52:51;;;;;;;81.30;24.15;;;;;;;13.15;100.00;102616.56;5264068;28;20116;-84
2022/10/18 06:55:22;;;;;;;105.85;25.65;;;;;;;13.24;100.00;102625.72;5263828;28;20041;-85
2022/10/18 06:57:53;;;;;;;53.70;21.40;;;;;;;13.30;100.00;102640.47;5264034;28;20478;-84
2022/10/18 07:00:25;;;;;;;62.10;22.23;;;;;;;13.40;100.00;102646.88;5264096;28;20100;-84
2022/10/18 07:02:57;;;;;;;61.63;23.55;;;;;;;13.30;100.00;102648.50;5263774;28;20029;-85
2022/10/18 07:05:28;;;;;;;44.30;23.52;;;;;;;13.24;100.00;102648.00;5263724;28;20060;-85
2022/10/18 07:08:00;;;;;;;50.17;20.13;;;;;;;13.30;100.00;102645.84;5263793;28;20040;-85
2022/10/18 07:10:31;;;;;;;45.13;23.00;;;;;;;13.16;100.00;102655.75;5262075;28;20104;-84
2022/10/18 07:13:02;;;;;;;35.65;20.92;;;;;;;13.16;100.00;102663.78;5267251;28;20048;-84
2022/10/18 07:15:37;;;;;;;49.50;20.33;;;;;;;13.14;100.00;102671.09;5291429;28;20013;-85
2022/10/18 07:18:08;;;;;;;49.92;22.30;;;;;;;13.14;100.00;102659.53;5290690;28;20025;-84
2022/10/18 07:20:39;;;;;;;50.88;22.90;;;;;;;13.24;100.00;102660.56;5259633;28;20033;-84
2022/10/18 07:23:11;;;;;;;62.20;23.95;;;;;;;13.34;100.00;102648.22;5258671;28;20026;-84
2022/10/18 07:25:42;;;;;;;53.28;23.52;;;;;;;13.56;100.00;102666.16;5253357;28;20038;-85
2022/10/18 07:28:13;;;;;;;58.38;22.65;;;;;;;13.72;100.00;102683.78;5264080;28;20009;-85
2022/10/18 07:30:45;;;;;;;79.85;23.38;;;;;;;13.84;100.00;102663.19;5264002;28;20116;-84
2022/10/18 07:33:16;;;;;;;115.28;25.40;;;;;;;13.94;100.00;102677.59;5263820;28;20014;-85
2022/10/18 07:35:47;;;;;;;67.70;23.33;;;;;;;14.05;100.00;102690.19;5262785;28;20486;-85
2022/10/18 07:38:19;;;;;;;62.67;23.50;;;;;;;14.37;100.00;102695.66;5263125;28;20025;-84
2022/10/18 07:40:59;;;;;;;92.38;23.60;;;;;;;14.45;100.00;102705.81;5263062;28;20022;-84
2022/10/18 07:43:30;;;;;;;82.45;22.55;;;;;;;14.49;100.00;102704.59;5261306;28;20026;-85
2022/10/18 07:46:03;;;;;;;74.22;21.30;;;;;;;14.71;100.00;102706.44;5263435;28;20022;-85
2022/10/18 07:48:35;;;;;;;52.08;21.60;;;;;;;14.74;100.00;102719.59;5262865;28;20156;-84
2022/10/18 07:51:07;;;;;;;53.67;20.30;;;;;;;14.82;100.00;102714.47;5263158;28;20109;-85
2022/10/18 07:53:39;;;;;;;51.47;20.08;;;;;;;14.95;100.00;102717.00;5261474;28;20013;-85
2022/10/18 07:56:16;;;;;;;65.05;19.80;;;;;;;14.98;100.00;102722.13;5261338;28;20032;-85
2022/10/18 07:58:50;;;;;;;36.50;18.88;;;;;;;15.11;100.00;102719.28;5257666;28;20014;-84
2022/10/18 08:01:23;;;;;;;37.63;19.63;;;;;;;15.44;100.00;102734.44;5257750;28;20022;-84
2022/10/18 08:03:55;;;;;;;34.20;18.13;;;;;;;15.53;100.00;102731.97;5263526;28;20048;-83
2022/10/18 08:06:26;;;;;;;25.85;17.23;;;;;;;15.97;100.00;102743.50;5264299;28;20448;-83
2022/10/18 08:08:57;;;;;;;20.35;15.80;;;;;;;15.99;100.00;102752.31;5267108;28;20559;-84
2022/10/18 08:11:29;;;;;;;19.63;14.98;;;;;;;16.12;100.00;102746.72;5265999;28;20026;-84
2022/10/18 08:14:01;;;;;;;25.45;16.20;;;;;;;16.15;100.00;102751.84;5267433;28;20053;-84
2022/10/18 08:16:32;;;;;;;22.45;14.70;;;;;;;16.46;100.00;102739.22;5283605;28;20486;-83
2022/10/18 08:19:03;;;;;;;18.02;14.00;;;;;;;16.69;100.00;102742.59;5285120;28;20017;-84
2022/10/18 08:21:34;;;;;;;18.27;14.45;;;;;;;17.08;100.00;102744.56;5270573;28;20029;-83
2022/10/18 08:24:06;;;;;;;20.58;14.20;;;;;;;17.34;100.00;102744.91;5271441;28;20152;-84
2022/10/18 08:26:37;;;;;;;17.08;13.77;;;;;;;17.16;100.00;102748.28;5280414;28;20025;-84
2022/10/18 08:29:10;;;;;;;17.33;12.23;;;;;;;17.04;100.00;102751.22;5279492;28;20037;-84
2022/10/18 08:31:41;;;;;;;16.52;12.90;;;;;;;17.39;100.00;102751.56;5264409;28;20108;-84
2022/10/18 08:34:12;;;;;;;17.83;12.80;;;;;;;17.72;100.00;102753.97;5262774;28;20105;-84
2022/10/18 08:36:44;;;;;;;17.75;13.07;;;;;;;18.18;100.00;102755.06;5263294;28;20048;-84
2022/10/18 08:39:15;;;;;;;16.10;12.57;;;;;;;18.55;100.00;102756.06;5263679;28;20023;-84
2022/10/18 08:42:14;;;;;;;16.48;12.38;;;;;;;19.60;100.00;102757.41;5263399;28;20049;-84
2022/10/18 08:44:48;;;;;;;15.63;10.75;;;;;;;20.02;100.00;102760.31;5261781;28;20076;-84
2022/10/18 08:47:34;;;;;;;17.10;11.82;;;;;;;21.13;100.00;102751.38;5260977;28;20026;-86
2022/10/18 08:50:21;;;;;;;19.67;11.23;;;;;;;22.58;100.00;102757.09;5241875;28;20038;-84
2022/10/18 08:53:11;;;;;;;15.30;9.63;;;;;;;23.37;100.00;102751.56;5241539;28;20108;-85
2022/10/18 08:55:53;;;;;;;15.57;9.02;;;;;;;23.88;100.00;102753.72;5241241;28;20105;-85
2022/10/18 08:58:30;;;;;;;13.55;8.45;;;;;;;24.10;100.00;102762.03;5240907;28;20018;-85
2022/10/18 09:01:23;;;;;;;15.48;8.68;;;;;;;24.04;100.00;102760.06;5257341;28;20116;-85
2022/10/18 09:04:10;;;;;;;15.45;8.63;;;;;;;23.95;100.00;102771.03;5261510;28;20048;-85
2022/10/18 09:07:14;;;;;;;12.95;8.25;;;;;;;23.91;100.00;102757.94;5260869;28;20033;-85
2022/10/18 09:10:11;;;;;;;12.70;7.68;;;;;;;23.60;100.00;102745.28;5261427;28;20033;-84
2022/10/18 09:13:09;;;;;;;11.68;7.75;;;;;;;24.33;100.00;102756.47;5260638;28;20033;-86
2022/10/18 09:15:48;;;;;;;9.40;6.40;;;;;;;25.50;100.00;102754.78;5264790;28;20509;-85
2022/10/18 09:19:01;;;;;;;10.75;7.25;;;;;;;26.92;100.00;102761.81;5264127;28;20359;-84
2022/10/18 09:21:53;;;;;;;14.45;6.93;;;;;;;28.41;100.00;102765.25;5244337;28;20029;-85
2022/10/18 09:24:32;;;;;;;13.35;6.60;;;;;;;28.37;100.00;102750.31;5244094;28;20042;-85
2022/10/18 09:27:13;;;;;;;9.48;6.70;;;;;;;30.49;100.00;102763.59;5244900;28;20161;-84
2022/10/18 09:30:08;;;;;;;11.32;5.78;;;;;;;31.58;100.00;102759.97;5245201;28;20022;-85
2022/10/18 09:32:59;;;;;;;8.35;5.32;;;;;;;31.30;100.00;102757.84;5264697;28;20072;-86
2022/10/18 09:35:41;;;;;;;9.75;5.15;;;;;;;31.09;100.00;102746.28;5264180;28;20031;-86
2022/10/18 09:38:17;;;;;;;12.63;5.88;;;;;;;31.02;100.00;102755.75;5264193;28;20021;-85
2022/10/18 09:40:59;;;;;;;11.85;5.22;;;;;;;32.21;100.00;102755.66;5264845;28;20030;-85
2022/10/18 09:43:39;;;;;;;8.77;5.15;;;;;;;32.83;92.15;102762.47;5263893;28;20052;-85
2022/10/18 09:46:12;;;;;;;11.27;5.43;;;;;;;32.16;89.99;102751.94;5278038;28;20429;-85
2022/10/18 09:48:55;;;;;;;15.77;5.55;;;;;;;32.75;84.70;102754.56;5264701;28;20033;-83
2022/10/18 09:51:33;;;;;;;10.90;5.40;;;;;;;32.79;76.11;102764.88;5264224;28;20129;-84
2022/10/18 09:54:16;;;;;;;9.02;5.20;;;;;;;33.42;88.51;102776.00;5263932;28;20381;-84
2022/10/18 09:56:49;;;;;;;9.57;4.88;;;;;;;32.84;75.16;102768.81;5264122;28;20025;-84
2022/10/18 09:59:44;;;;;;;10.32;5.07;;;;;;;34.44;89.16;102756.50;5273668;28;20382;-85
2022/10/18 10:02:19;;;;;;;9.68;5.10;;;;;;;35.56;69.79;102756.84;5256460;28;20037;-84
2022/10/18 10:04:55;;;;;;;12.40;5.03;;;;;;;33.98;72.63;102747.56;5265447;28;20532;-84
2022/10/18 10:07:34;;;;;;;10.57;4.95;;;;;;;35.67;59.49;102754.97;5295565;28;20029;-84
2022/10/18 10:10:22;;;;;;;14.75;5.35;;;;;;;35.46;65.14;102748.44;5263891;28;20371;-84
2022/10/18 10:13:21;;;;;;;11.50;5.30;;;;;;;38.25;67.32;102748.78;5264570;28;20037;-84
2022/10/18 10:15:59;;;;;;;8.82;4.50;;;;;;;36.81;63.19;102746.09;5264902;28;20030;-84
2022/10/18 10:18:35;;;;;;;8.77;4.35;;;;;;;36.67;49.06;102739.38;5278406;28;20067;-85
2022/10/18 10:21:13;;;;;;;7.28;4.20;;;;;;;36.71;51.86;102740.50;5263451;28;20030;-84
2022/10/18 10:23:51;;;;;;;9.38;4.43;;;;;;;36.39;57.93;102735.97;5263265;28;20037;-84
2022/10/18 10:26:27;;;;;;;10.98;4.43;;;;;;;37.08;51.85;102750.56;5263331;28;20096;-85
2022/10/18 10:28:59;;;;;;;12.70;5.57;;;;;;;35.80;55.23;102742.56;5264639;28;20038;-84
2022/10/18 10:31:31;;;;;;;11.10;4.57;;;;;;;36.73;48.38;102749.44;5264285;28;20473;-84
2022/10/18 10:34:18;;;;;;;11.27;4.32;;;;;;;37.99;48.19;102743.31;5263940;28;20363;-84
2022/10/18 10:36:53;;;;;;;7.70;3.83;;;;;;;38.23;44.66;102752.97;5264169;28;20028;-84
2022/10/18 10:39:24;;;;;;;9.80;4.38;;;;;;;37.07;41.43;102762.81;5263488;28;20462;-84
2022/10/18 10:41:59;;;;;;;11.00;4.30;;;;;;;37.06;40.30;102762.00;5264255;28;20033;-84
2022/10/18 10:44:34;;;;;;;8.57;5.15;;;;;;;36.39;51.33;102765.69;5262683;28;20821;-84
2022/10/18 10:47:06;;;;;;;7.22;4.05;;;;;;;36.04;50.87;102759.66;5261561;28;20048;-84
2022/10/18 10:49:46;;;;;;;9.73;4.15;;;;;;;36.92;46.36;102768.38;5261431;28;20026;-84
2022/10/18 10:52:20;;;;;;;9.35;4.85;;;;;;;36.44;44.72;102765.72;5263878;28;20552;-84
2022/10/18 10:54:53;;;;;;;11.10;4.40;;;;;;;37.07;40.56;102768.38;5278777;28;20034;-85
2022/10/18 10:57:28;;;;;;;10.95;4.15;;;;;;;37.96;42.58;102766.13;5263345;28;20421;-84
2022/10/18 10:59:59;;;;;;;;;;;;;;;41.42;45.25;102772.84;5279328;28;20040;-84
2022/10/18 11:02:33;;;;;;;8.90;3.23;;;;;;;37.78;36.75;102770.38;5263136;28;19921;-84
2022/10/18 11:05:24;;;;;;;6.32;2.42;;;;;;;38.75;41.64;102766.38;5262965;28;20124;-84
2022/10/18 11:08:01;;;;;;;6.70;2.67;;;;;;;37.29;37.75;102765.34;5262961;28;20113;-84
2022/10/18 11:10:46;;;;;;;9.95;3.40;;;;;;;39.19;39.14;102766.66;5261473;28;20056;-84
2022/10/18 11:13:29;;;;;;;8.07;3.15;;;;;;;38.91;44.03;102769.06;5262726;28;20037;-85
2022/10/18 11:16:25;;;;;;;7.35;2.60;;;;;;;38.30;36.84;102764.66;5262759;28;20385;-84
2022/10/18 11:19:00;;;;;;;10.82;3.00;;;;;;;38.66;35.59;102767.25;5261709;28;20021;-85
2022/10/18 11:21:31;;;;;;;;;;;;;;;42.99;41.10;102771.81;5243162;28;20092;-84
2022/10/18 11:24:10;;;;;;;9.05;3.10;;;;;;;39.38;32.71;102767.63;5262160;28;19925;-84
2022/10/18 11:27:12;;;;;;;6.05;2.63;;;;;;;39.79;38.70;102767.22;5262685;28;20026;-84
2022/10/18 11:30:00;;;;;;;7.28;2.63;;;;;;;38.31;39.04;102763.50;5262668;28;20030;-84
2022/10/18 11:32:46;;;;;;;7.47;2.45;;;;;;;38.37;35.73;102756.81;5261872;28;20478;-84
2022/10/18 11:35:31;;;;;;;6.10;2.35;;;;;;;39.39;39.12;102746.09;5262716;28;20021;-84
2022/10/18 11:38:28;;;;;;;6.85;2.53;;;;;;;39.47;34.95;102751.91;5249035;28;20041;-84
2022/10/18 11:41:02;;;;;;;6.53;2.30;;;;;;;39.10;34.39;102756.13;5241860;28;20026;-84
2022/10/18 11:43:48;;;;;;;7.80;2.63;;;;;;;40.02;34.73;102754.41;5241395;28;20022;-83